Time;durP1;ratioP1;P1;durP2;ratioP2;P2;SDS_P1;SDS_P2;PMS_P1;PMS_P2;Temp;Humidity;BMP_temperature;BMP_pressure;BME280_temperature;BME280_humidity;BME280_pressure;Samples;Min_cycle;Max_cycle;Signal;HPM_P1;HPM_P2
2021/12/04 00:02:03;;;;;;;54.97;29.45;;;;;;;3.71;100.00;99960.75;6066076;23;20023;-77
2021/12/04 00:04:45;;;;;;;56.13;29.42;;;;;;;3.70;100.00;99959.00;6054127;23;20027;-76
2021/12/04 00:07:13;;;;;;;52.63;28.45;;;;;;;3.71;100.00;99961.63;6058385;23;20222;-76
2021/12/04 00:09:45;;;;;;;54.50;29.05;;;;;;;3.71;100.00;99952.94;6050580;23;20030;-76
2021/12/04 00:12:14;;;;;;;47.10;27.65;;;;;;;3.71;100.00;99951.22;6064929;23;20049;-77
2021/12/04 00:14:42;;;;;;;45.83;26.10;;;;;;;3.73;100.00;99947.78;6051621;23;20030;-77
2021/12/04 00:17:11;;;;;;;48.15;29.00;;;;;;;3.74;100.00;99955.59;6019756;23;20573;-77
2021/12/04 00:19:40;;;;;;;50.60;29.38;;;;;;;3.74;100.00;99950.38;6027897;23;20027;-77
2021/12/04 00:22:09;;;;;;;57.45;28.95;;;;;;;3.74;100.00;99945.16;6060949;23;20161;-77
2021/12/04 00:24:37;;;;;;;51.05;29.08;;;;;;;3.75;100.00;99946.06;6062007;23;20030;-77
2021/12/04 00:27:06;;;;;;;50.95;27.83;;;;;;;3.75;100.00;99944.31;6044309;23;20623;-77
2021/12/04 00:29:34;;;;;;;48.65;26.38;;;;;;;3.76;100.00;99934.78;6062670;23;20362;-77
2021/12/04 00:32:15;;;;;;;47.55;27.05;;;;;;;3.75;100.00;99931.28;6032507;23;20153;-77
2021/12/04 00:34:46;;;;;;;47.80;26.60;;;;;;;3.75;100.00;99931.28;6061452;23;20018;-77
2021/12/04 00:51:11;;;;;;;54.75;30.25;;;;;;;3.75;100.00;99935.63;6065578;23;20157;-77
2021/12/04 00:53:40;;;;;;;52.78;27.30;;;;;;;3.74;100.00;99939.94;6065953;23;20027;-77
2021/12/04 00:56:09;;;;;;;56.80;28.50;;;;;;;3.75;100.00;99935.63;6058523;23;20226;-77
2021/12/04 00:58:37;;;;;;;59.83;30.55;;;;;;;3.75;100.00;99923.47;6058420;23;20441;-77
2021/12/04 01:01:05;;;;;;;55.90;28.40;;;;;;;3.74;100.00;99929.53;6058773;23;20026;-77
2021/12/04 01:03:35;;;;;;;58.63;28.85;;;;;;;3.74;100.00;99924.31;6013959;23;20033;-77
2021/12/04 01:06:06;;;;;;;56.00;29.30;;;;;;;3.75;100.00;99940.84;6062134;23;20264;-77
2021/12/04 01:08:34;;;;;;;;;;;;;;;3.74;100.00;99939.09;6062951;23;20018;-76
2021/12/04 01:11:03;;;;;;;57.72;28.63;;;;;;;3.73;100.00;99938.22;6032348;23;20383;-76
2021/12/04 01:13:32;;;;;;;64.22;30.05;;;;;;;3.72;100.00;99946.88;6065910;23;20030;-76
2021/12/04 01:16:01;;;;;;;72.07;31.10;;;;;;;3.72;100.00;99939.06;6033875;23;20015;-76
2021/12/04 01:18:29;;;;;;;67.65;29.77;;;;;;;3.71;100.00;99935.56;6033014;23;20026;-76
2021/12/04 01:20:58;;;;;;;72.75;31.73;;;;;;;3.72;100.00;99936.44;6060455;23;20022;-76
2021/12/04 01:23:27;;;;;;;66.13;31.77;;;;;;;3.74;100.00;99929.53;6063270;23;20026;-76
2021/12/04 01:25:55;;;;;;;68.38;31.45;;;;;;;3.73;100.00;99922.56;5997972;23;20141;-75
2021/12/04 01:28:23;;;;;;;71.35;31.33;;;;;;;3.73;100.00;99922.56;6038614;23;20029;-76
2021/12/04 01:30:52;;;;;;;71.53;32.25;;;;;;;3.73;100.00;99917.38;6033346;23;20046;-76
2021/12/04 01:33:21;;;;;;;76.50;31.83;;;;;;;3.73;100.00;99917.38;6062289;23;20023;-76
2021/12/04 01:35:49;;;;;;;72.00;31.42;;;;;;;3.72;100.00;99913.00;6037068;23;20026;-77
2021/12/04 01:38:18;;;;;;;70.78;31.08;;;;;;;3.72;100.00;99915.59;6065526;23;20422;-76
2021/12/04 01:40:46;;;;;;;75.97;32.10;;;;;;;3.73;100.00;99925.19;6062350;23;20026;-76
2021/12/04 01:43:15;;;;;;;69.55;31.15;;;;;;;3.73;100.00;99917.38;6059625;23;20050;-77
2021/12/04 01:45:43;;;;;;;75.22;31.70;;;;;;;3.74;100.00;99924.31;6064452;23;20468;-77
2021/12/04 01:48:12;;;;;;;79.28;32.83;;;;;;;3.75;100.00;99925.22;6053407;23;20026;-77
2021/12/04 01:50:40;;;;;;;79.10;33.13;;;;;;;3.75;100.00;99927.81;6039741;23;20019;-77
2021/12/04 01:53:08;;;;;;;81.63;33.40;;;;;;;3.75;100.00;99926.09;6062330;23;20037;-77
2021/12/04 01:55:37;;;;;;;66.03;30.13;;;;;;;3.75;100.00;99927.81;6040597;23;20019;-77
2021/12/04 01:58:06;;;;;;;74.30;31.58;;;;;;;3.75;100.00;99914.78;6057160;23;20019;-77
2021/12/04 02:00:41;;;;;;;64.05;29.95;;;;;;;3.75;100.00;99912.19;6065670;23;20366;-77
2021/12/04 02:03:12;;;;;;;77.53;32.00;;;;;;;3.75;100.00;99894.81;6059963;23;20033;-77
2021/12/04 02:05:41;;;;;;;81.35;32.42;;;;;;;3.73;100.00;99896.53;6005498;23;20068;-76
2021/12/04 02:08:14;;;;;;;78.35;32.97;;;;;;;3.73;100.00;99896.53;6058084;23;20029;-76
2021/12/04 02:10:44;;;;;;;77.35;33.15;;;;;;;3.72;100.00;99894.75;6065414;23;20441;-76
2021/12/04 02:13:15;;;;;;;75.95;32.15;;;;;;;3.73;100.00;99896.53;6055485;23;20029;-78
2021/12/04 02:15:45;;;;;;;86.75;32.22;;;;;;;3.71;100.00;99901.69;6041307;23;20045;-76
2021/12/04 02:18:15;;;;;;;87.88;33.00;;;;;;;3.71;100.00;99896.50;6057827;23;20022;-76
2021/12/04 02:20:44;;;;;;;84.18;32.78;;;;;;;3.71;100.00;99899.09;6065236;23;20026;-77
2021/12/04 02:23:12;;;;;;;79.97;32.92;;;;;;;3.71;100.00;99891.28;6035217;23;20023;-76
2021/12/04 02:25:41;;;;;;;80.63;31.77;;;;;;;3.71;100.00;99903.44;6066159;23;20023;-76
2021/12/04 02:28:12;;;;;;;90.32;33.95;;;;;;;3.70;100.00;99901.66;6058186;23;20030;-75
2021/12/04 02:30:43;;;;;;;87.30;33.60;;;;;;;3.70;100.00;99896.47;6065841;23;20023;-76
2021/12/04 02:33:12;;;;;;;93.57;32.60;;;;;;;3.69;100.00;99892.13;6057422;23;20034;-78
2021/12/04 02:35:47;;;;;;;78.47;30.98;;;;;;;3.67;100.00;99892.09;6061284;23;20357;-76
2021/12/04 02:38:18;;;;;;;101.55;34.38;;;;;;;3.69;100.00;99884.31;6026794;23;20030;-76
2021/12/04 02:40:46;;;;;;;104.57;33.83;;;;;;;3.67;100.00;99872.97;6061043;23;20019;-77
2021/12/04 02:43:15;;;;;;;97.35;33.40;;;;;;;3.66;100.00;99872.09;6057540;23;20019;-77
2021/12/04 02:45:44;;;;;;;88.47;31.63;;;;;;;3.66;100.00;99872.09;6057530;23;20029;-76
2021/12/04 02:48:13;;;;;;;92.80;31.70;;;;;;;3.65;100.00;99872.94;6036527;23;20011;-77
2021/12/04 02:50:42;;;;;;;98.53;32.95;;;;;;;3.65;100.00;99866.88;6037992;23;20018;-76
2021/12/04 02:53:10;;;;;;;101.90;34.53;;;;;;;3.65;100.00;99867.75;6035501;23;20031;-77
2021/12/04 02:55:39;;;;;;;87.22;32.97;;;;;;;3.65;100.00;99856.47;6065143;23;20101;-77
2021/12/04 02:58:07;;;;;;;98.10;32.40;;;;;;;3.64;100.00;99852.09;6060986;23;20019;-76
2021/12/04 03:00:48;;;;;;;105.95;33.50;;;;;;;3.62;100.00;99848.56;6051522;23;20434;-77
2021/12/04 03:03:19;;;;;;;121.25;33.05;;;;;;;3.62;100.00;99838.16;6062645;23;20022;-77
2021/12/04 03:05:51;;;;;;;99.30;33.28;;;;;;;3.61;100.00;99839.00;6061572;23;20472;-78
2021/12/04 03:08:22;;;;;;;104.20;33.08;;;;;;;3.59;100.00;99841.59;6011243;23;20018;-76
2021/12/04 03:10:52;;;;;;;110.53;32.25;;;;;;;3.59;100.00;99848.53;6065963;23;20023;-76
2021/12/04 03:13:22;;;;;;;104.45;32.42;;;;;;;3.60;100.00;99845.06;6037602;23;20503;-76
2021/12/04 03:15:57;;;;;;;104.22;30.90;;;;;;;3.59;100.00;99845.91;6038014;23;20027;-76
2021/12/04 03:18:27;;;;;;;107.65;32.80;;;;;;;3.59;100.00;99841.59;6033105;23;20023;-76
2021/12/04 03:21:02;;;;;;;91.95;30.55;;;;;;;3.57;100.00;99835.47;6064316;23;20034;-76
2021/12/04 03:23:40;;;;;;;113.75;32.33;;;;;;;3.58;100.00;99836.38;6035862;23;20536;-76
2021/12/04 03:26:10;;;;;;;95.50;30.55;;;;;;;3.57;100.00;99826.78;6065832;23;20026;-76
2021/12/04 03:28:38;;;;;;;90.18;30.27;;;;;;;3.58;100.00;99828.56;6038319;23;20030;-76
2021/12/04 03:31:13;;;;;;;109.13;32.33;;;;;;;3.56;100.00;99825.03;6064574;23;20019;-76
2021/12/04 03:42:02;;;;;;;97.40;31.02;;;;;;;3.59;100.00;99817.25;6063079;23;20023;-77
2021/12/04 03:44:32;;;;;;;88.88;28.85;;;;;;;3.60;100.00;99819.03;6040054;23;20249;-75
2021/12/04 03:47:01;;;;;;;94.80;29.35;;;;;;;3.59;100.00;99818.16;6065906;23;20449;-76
2021/12/04 03:49:30;;;;;;;87.40;28.50;;;;;;;3.58;100.00;99819.00;6020548;23;20211;-76
2021/12/04 03:51:59;;;;;;;85.57;29.13;;;;;;;3.58;100.00;99823.34;6053153;23;20023;-77
2021/12/04 03:54:28;;;;;;;95.95;30.33;;;;;;;3.56;100.00;99820.69;6036763;23;20440;-76
2021/12/04 03:57:04;;;;;;;92.73;30.07;;;;;;;3.57;100.00;99822.44;6043801;23;20043;-77
2021/12/04 03:59:35;;;;;;;77.15;26.73;;;;;;;3.57;100.00;99825.03;6058868;23;20054;-77
2021/12/04 04:02:07;;;;;;;84.03;27.42;;;;;;;3.57;100.00;99821.56;6064269;23;20022;-77
2021/12/04 04:04:36;;;;;;;76.93;27.58;;;;;;;3.57;100.00;99814.63;6030819;23;20216;-77
2021/12/04 04:07:06;;;;;;;67.43;26.58;;;;;;;3.58;100.00;99818.13;6066589;23;20349;-77
2021/12/04 04:09:35;;;;;;;77.60;28.17;;;;;;;3.58;100.00;99823.34;6030257;23;20049;-76
2021/12/04 04:12:04;;;;;;;81.30;28.07;;;;;;;3.56;100.00;99812.88;6067422;23;20026;-77
2021/12/04 04:14:33;;;;;;;81.00;27.73;;;;;;;3.56;100.00;99809.41;6017941;23;20528;-77
2021/12/04 04:17:04;;;;;;;80.70;27.65;;;;;;;3.54;100.00;99804.19;6042701;23;20018;-76
2021/12/04 04:19:32;;;;;;;63.08;25.95;;;;;;;3.55;100.00;99812.88;6026636;23;20134;-76
2021/12/04 04:22:00;;;;;;;82.90;28.73;;;;;;;3.55;100.00;99807.66;6066606;23;20023;-76
2021/12/04 04:24:32;;;;;;;67.65;26.45;;;;;;;3.54;100.00;99798.09;6061349;23;20238;-76
2021/12/04 04:27:01;;;;;;;67.72;25.52;;;;;;;3.53;100.00;99805.00;5992817;23;20357;-76
2021/12/04 04:29:29;;;;;;;72.38;26.52;;;;;;;3.53;100.00;99804.16;6062931;23;20062;-76
2021/12/04 04:31:57;;;;;;;75.43;25.45;;;;;;;3.51;100.00;99794.56;6010234;23;20026;-76
2021/12/04 04:34:33;;;;;;;69.45;25.00;;;;;;;3.51;100.00;99802.38;6057900;23;20023;-76
2021/12/04 05:13:01;;;;;;;61.75;24.73;;;;;;;3.51;100.00;99793.69;6066039;23;20357;-77
2021/12/04 05:15:56;;;;;;;59.95;24.42;;;;;;;3.51;100.00;99785.88;6046528;23;20312;-76
2021/12/04 05:18:42;;;;;;;63.60;24.58;;;;;;;3.50;100.00;99790.22;6061317;23;20378;-76
2021/12/04 05:21:12;;;;;;;70.43;25.45;;;;;;;3.50;100.00;99785.03;6051861;23;20021;-77
2021/12/04 05:23:49;;;;;;;61.20;24.05;;;;;;;3.50;100.00;99779.81;6039859;23;20019;-76
2021/12/04 05:26:22;;;;;;;57.78;23.45;;;;;;;3.52;100.00;99782.44;6063108;23;20576;-76
2021/12/04 05:28:52;;;;;;;54.25;24.00;;;;;;;3.53;100.00;99783.31;6104448;23;20022;-76
2021/12/04 05:31:21;;;;;;;46.88;21.75;;;;;;;3.53;100.00;99783.31;6065742;23;20021;-76
2021/12/04 05:33:51;;;;;;;59.35;23.38;;;;;;;3.52;100.00;99777.22;6125849;23;20026;-76
2021/12/04 05:36:20;;;;;;;57.20;22.58;;;;;;;3.52;100.00;99785.06;6090776;23;20245;-76
2021/12/04 05:38:48;;;;;;;65.55;24.98;;;;;;;3.51;100.00;99785.88;6066830;23;20448;-76
2021/12/04 05:41:17;;;;;;;54.92;22.17;;;;;;;3.50;100.00;99785.03;6088790;23;20033;-77
2021/12/04 05:43:45;;;;;;;53.15;22.75;;;;;;;3.51;100.00;99786.75;6100743;23;20026;-77
2021/12/04 05:46:20;;;;;;;56.88;23.17;;;;;;;3.51;100.00;99778.06;6067930;23;20018;-77
2021/12/04 05:48:59;;;;;;;55.20;22.65;;;;;;;3.51;100.00;99781.53;6100404;23;20025;-77
2021/12/04 05:52:16;;;;;;;55.67;22.80;;;;;;;3.51;100.00;99778.94;6089832;23;20705;-77
2021/12/04 05:56:48;;;;;;;44.92;21.00;;;;;;;3.54;100.00;99775.53;6096955;23;20496;-77
2021/12/04 05:59:16;;;;;;;47.38;19.75;;;;;;;3.57;100.00;99795.53;6089728;23;20032;-77
2021/12/04 06:01:45;;;;;;;46.00;20.30;;;;;;;3.56;100.00;99785.97;6068479;23;20029;-76
2021/12/04 06:04:13;;;;;;;49.22;21.05;;;;;;;3.56;100.00;99770.34;6095809;23;20022;-77
2021/12/04 06:06:43;;;;;;;50.85;20.55;;;;;;;3.56;100.00;99779.03;6125997;23;20028;-77
2021/12/04 06:09:12;;;;;;;50.95;20.88;;;;;;;3.55;100.00;99774.66;6088810;23;20014;-76
2021/12/04 06:11:41;;;;;;;47.45;20.42;;;;;;;3.56;100.00;99775.56;6062890;23;20013;-76
2021/12/04 06:14:09;;;;;;;42.95;19.52;;;;;;;3.56;100.00;99780.75;6096230;23;20017;-76
2021/12/04 06:16:37;;;;;;;40.75;18.83;;;;;;;3.56;100.00;99776.41;6098757;23;20037;-76
2021/12/04 06:19:13;;;;;;;42.75;19.88;;;;;;;3.57;100.00;99774.69;6068148;23;20014;-76
2021/12/04 06:24:28;;;;;;;40.35;18.55;;;;;;;3.56;100.00;99772.94;6091854;23;20022;-76
2021/12/04 06:26:56;;;;;;;38.70;18.45;;;;;;;3.56;100.00;99775.56;6099618;23;20029;-76
2021/12/04 06:29:25;;;;;;;52.65;19.88;;;;;;;3.55;100.00;99776.41;6056139;23;20052;-77
2021/12/04 06:31:53;;;;;;;39.70;17.75;;;;;;;3.55;100.00;99771.19;6075375;23;20348;-77
2021/12/04 06:34:22;;;;;;;44.85;18.58;;;;;;;3.56;100.00;99773.81;6042432;23;20546;-77
2021/12/04 06:36:50;;;;;;;41.42;17.58;;;;;;;3.57;100.00;99782.50;6099400;23;20018;-77
2021/12/04 06:39:18;;;;;;;35.35;16.73;;;;;;;3.55;100.00;99779.00;6090176;23;20021;-77
2021/12/04 06:41:48;;;;;;;37.70;17.23;;;;;;;3.57;100.00;99780.75;6059120;23;20018;-77
2021/12/04 06:44:17;;;;;;;36.20;17.63;;;;;;;3.59;100.00;99778.19;6083229;23;20225;-77
2021/12/04 06:46:45;;;;;;;35.85;17.58;;;;;;;3.59;100.00;99779.09;6078042;23;20014;-77
2021/12/04 06:49:17;;;;;;;35.42;17.40;;;;;;;3.59;100.00;99786.00;6052283;23;20426;-76
2021/12/04 06:51:52;;;;;;;35.03;17.48;;;;;;;3.60;100.00;99787.75;6099369;23;20029;-76
2021/12/04 06:54:25;;;;;;;39.30;17.85;;;;;;;3.59;100.00;99786.00;6114858;23;20021;-77
2021/12/04 06:56:53;;;;;;;36.60;18.33;;;;;;;3.59;100.00;99783.38;6125630;23;20029;-76
2021/12/04 06:59:26;;;;;;;37.03;17.42;;;;;;;3.60;100.00;99787.75;6068090;23;20018;-77
2021/12/04 07:01:55;;;;;;;37.90;18.13;;;;;;;3.59;100.00;99778.19;6039307;23;20095;-77
2021/12/04 07:04:29;;;;;;;36.42;17.98;;;;;;;3.57;100.00;99780.75;6089643;23;20239;-76
2021/12/04 07:06:57;;;;;;;40.25;18.42;;;;;;;3.55;100.00;99771.19;6075486;23;20022;-76
2021/12/04 07:09:26;;;;;;;37.85;17.90;;;;;;;3.55;100.00;99776.41;6068607;23;20079;-76
2021/12/04 07:11:54;;;;;;;39.03;17.63;;;;;;;3.52;100.00;99772.03;6069342;23;20014;-76
2021/12/04 07:14:23;;;;;;;33.40;17.20;;;;;;;3.51;100.00;99771.13;6056781;23;20351;-76
2021/12/04 07:16:51;;;;;;;37.38;17.13;;;;;;;3.51;100.00;99771.13;6052178;23;20024;-76
2021/12/04 07:19:20;;;;;;;34.30;17.20;;;;;;;3.52;100.00;99766.81;6086608;23;20061;-76
2021/12/04 07:21:49;;;;;;;35.20;17.40;;;;;;;3.51;100.00;99760.72;6033214;23;20033;-76
2021/12/04 07:24:17;;;;;;;31.70;17.15;;;;;;;3.52;100.00;99751.19;6042449;23;20252;-76
2021/12/04 07:26:46;;;;;;;34.17;16.15;;;;;;;3.54;100.00;99754.69;6067438;23;20345;-76
2021/12/04 07:29:14;;;;;;;31.55;15.88;;;;;;;3.56;100.00;99759.94;6084006;23;20022;-76
2021/12/04 07:31:43;;;;;;;35.97;17.40;;;;;;;3.56;100.00;99754.72;6060437;23;20022;-77
2021/12/04 07:34:11;;;;;;;36.05;17.77;;;;;;;3.56;100.00;99752.09;6071853;23;20025;-77
2021/12/04 07:36:40;;;;;;;34.92;16.77;;;;;;;3.55;100.00;99748.59;6100139;23;20026;-76
2021/12/04 07:39:08;;;;;;;31.95;17.02;;;;;;;3.56;100.00;99739.94;6095161;23;20029;-76
2021/12/04 07:41:42;;;;;;;30.95;16.88;;;;;;;3.57;100.00;99739.06;6090386;23;20021;-76
2021/12/04 07:44:11;;;;;;;32.33;16.98;;;;;;;3.57;100.00;99743.41;6046735;23;20051;-77
2021/12/04 07:46:41;;;;;;;33.00;16.85;;;;;;;3.59;100.00;99745.22;6098754;23;20340;-76
2021/12/04 07:49:09;;;;;;;33.67;17.25;;;;;;;3.58;100.00;99740.84;6121829;23;20029;-77
2021/12/04 07:51:38;;;;;;;28.80;16.33;;;;;;;3.60;100.00;99727.84;6093309;23;20021;-76
2021/12/04 07:54:06;;;;;;;34.50;17.25;;;;;;;3.60;100.00;99733.06;6046798;23;20029;-76
2021/12/04 07:56:34;;;;;;;35.58;17.15;;;;;;;3.62;100.00;99732.22;6092691;23;20057;-75
2021/12/04 07:59:03;;;;;;;30.63;16.98;;;;;;;3.62;100.00;99734.81;6069867;23;20364;-76
2021/12/04 08:01:31;;;;;;;35.92;17.77;;;;;;;3.64;100.00;99740.06;6057402;23;20319;-76
2021/12/04 08:04:00;;;;;;;38.13;17.25;;;;;;;3.64;100.00;99740.06;6074305;23;20456;-76
2021/12/04 08:06:28;;;;;;;36.20;17.05;;;;;;;3.64;100.00;99740.91;6091236;23;20368;-75
2021/12/04 08:08:58;;;;;;;31.70;16.60;;;;;;;3.66;100.00;99744.41;6047198;23;20021;-76
2021/12/04 08:11:31;;;;;;;39.53;18.05;;;;;;;3.68;100.00;99736.63;6064920;23;20010;-76
2021/12/04 08:14:00;;;;;;;39.13;18.42;;;;;;;3.66;100.00;99741.81;6121731;23;20022;-76
2021/12/04 08:16:32;;;;;;;40.10;16.60;;;;;;;3.67;100.00;99740.09;6122664;23;20018;-76
2021/12/04 08:19:01;;;;;;;47.95;17.85;;;;;;;3.68;100.00;99734.03;6125462;23;20025;-76
2021/12/04 08:21:30;;;;;;;40.30;18.40;;;;;;;3.69;100.00;99739.25;6071631;23;20025;-76
2021/12/04 08:23:58;;;;;;;46.40;22.65;;;;;;;3.70;100.00;99740.13;6101348;23;20021;-76
2021/12/04 08:26:27;;;;;;;43.65;18.48;;;;;;;3.72;100.00;99735.81;6059401;23;20028;-75
2021/12/04 08:28:55;;;;;;;50.78;20.15;;;;;;;3.72;100.00;99733.19;6074643;23;20031;-75
2021/12/04 08:31:24;;;;;;;50.05;19.58;;;;;;;3.71;100.00;99723.66;6062736;23;20637;-75
2021/12/04 08:33:52;;;;;;;53.95;20.17;;;;;;;3.72;100.00;99725.38;6065966;23;20026;-75
2021/12/04 08:36:21;;;;;;;73.03;20.85;;;;;;;3.72;100.00;99730.59;6063799;23;20038;-76
2021/12/04 08:38:50;;;;;;;46.72;17.50;;;;;;;3.70;100.00;99729.69;6042393;23;20027;-76
2021/12/04 08:41:20;;;;;;;67.20;20.70;;;;;;;3.71;100.00;99728.88;6055302;23;20034;-76
2021/12/04 08:43:49;;;;;;;52.22;19.98;;;;;;;3.70;100.00;99729.69;6053828;23;20023;-76
2021/12/04 08:46:20;;;;;;;55.95;19.45;;;;;;;3.69;100.00;99728.84;6019968;23;20023;-76
2021/12/04 08:48:51;;;;;;;54.95;18.85;;;;;;;3.67;100.00;99732.28;6039800;23;20033;-76
2021/12/04 08:51:22;;;;;;;50.45;19.63;;;;;;;3.66;100.00;99728.78;6068210;23;20045;-76
2021/12/04 08:53:52;;;;;;;52.42;18.40;;;;;;;3.66;100.00;99725.31;6035332;23;20506;-76
2021/12/04 08:56:21;;;;;;;;;;;;;;;3.64;100.00;99727.03;6069823;23;20449;-76
2021/12/04 08:58:50;;;;;;;40.42;17.40;;;;;;;3.65;100.00;99734.88;6049741;23;19917;-76
2021/12/04 09:01:26;;;;;;;35.13;16.33;;;;;;;3.63;100.00;99728.75;6061196;23;20027;-76
2021/12/04 09:04:09;;;;;;;40.05;18.13;;;;;;;3.61;100.00;99735.69;6063754;23;20133;-77
2021/12/04 09:06:38;;;;;;;34.05;16.40;;;;;;;3.64;100.00;99740.06;6064123;23;20023;-76
2021/12/04 09:09:08;;;;;;;39.80;16.38;;;;;;;3.63;100.00;99740.88;6041345;23;20030;-76
2021/12/04 09:11:44;;;;;;;33.85;16.75;;;;;;;3.63;100.00;99747.00;6057843;23;20026;-77
2021/12/04 09:14:17;;;;;;;36.13;17.75;;;;;;;3.63;100.00;99749.59;6064472;23;20419;-76
2021/12/04 09:16:46;;;;;;;34.78;16.50;;;;;;;3.63;100.00;99739.19;6055232;23;20632;-76
2021/12/04 09:19:14;;;;;;;36.03;16.27;;;;;;;3.65;100.00;99739.22;6060750;23;20019;-77
2021/12/04 09:21:42;;;;;;;31.27;15.90;;;;;;;3.65;100.00;99736.59;6059033;23;20034;-76
2021/12/04 09:24:14;;;;;;;29.15;15.57;;;;;;;3.66;100.00;99735.72;6038902;23;20023;-77
2021/12/04 09:26:55;;;;;;;31.35;14.88;;;;;;;3.68;100.00;99731.41;6040840;23;20293;-76
2021/12/04 10:32:26;;;;;;;23.13;15.50;;;;;;;4.02;100.00;99654.50;6057062;23;20023;-75
2021/12/04 10:35:06;;;;;;;20.60;14.13;;;;;;;4.01;100.00;99642.34;6061844;23;20349;-76
2021/12/04 10:37:45;;;;;;;22.38;14.88;;;;;;;4.03;100.00;99634.53;6028203;23;20029;-77
2021/12/04 10:40:16;;;;;;;21.42;15.18;;;;;;;4.04;100.00;99631.94;6000265;23;20031;-75
2021/12/04 10:42:53;;;;;;;25.55;15.27;;;;;;;4.05;100.00;99628.47;6011751;23;20023;-75
2021/12/04 10:45:44;;;;;;;20.40;13.90;;;;;;;4.05;100.00;99628.47;6046926;23;20023;-75
2021/12/04 10:48:25;;;;;;;22.20;14.25;;;;;;;4.06;100.00;99627.63;6052109;23;20023;-76
2021/12/04 10:51:19;;;;;;;;;;;;;;;4.07;100.00;99621.53;6028306;23;20511;-76
2021/12/04 10:53:49;;;;;;;22.25;13.77;;;;;;;4.06;100.00;99624.13;6056460;23;19921;-76
2021/12/04 10:56:35;;;;;;;22.35;14.52;;;;;;;4.08;100.00;99614.59;6047623;23;20031;-76
2021/12/04 11:19:06;;;;;;;22.15;14.15;;;;;;;4.18;100.00;99603.41;6027296;23;20023;-77
2021/12/04 11:25:08;;;;;;;25.60;13.55;;;;;;;4.20;100.00;99593.00;5940695;24;20379;-76
2021/12/04 11:38:33;;;;;;;23.13;15.60;;;;;;;4.20;100.00;99596.47;6056877;23;20216;-76
2021/12/04 11:43:47;;;;;;;25.77;16.42;;;;;;;4.22;100.00;99601.69;6061618;23;20026;-75
2021/12/04 11:46:25;;;;;;;28.85;16.42;;;;;;;4.23;100.00;99601.69;6084895;23;20025;-76
2021/12/04 11:48:56;;;;;;;28.23;16.45;;;;;;;4.22;100.00;99593.88;6067495;23;20030;-76
2021/12/04 11:51:26;;;;;;;31.90;18.30;;;;;;;4.22;100.00;99586.06;6063100;23;20026;-76
2021/12/04 11:53:55;;;;;;;35.80;18.60;;;;;;;4.20;100.00;99578.22;6068718;23;20484;-75
2021/12/04 11:56:28;;;;;;;36.03;18.80;;;;;;;4.17;100.00;99570.34;6092516;23;20382;-75
2021/12/04 11:58:57;;;;;;;39.70;20.48;;;;;;;4.16;100.00;99567.72;6072139;23;20022;-76
2021/12/04 12:01:32;;;;;;;37.90;20.35;;;;;;;4.16;100.00;99565.13;6091840;23;20451;-75
2021/12/04 12:04:08;;;;;;;41.20;21.58;;;;;;;4.16;100.00;99562.50;6085519;23;20026;-76
2021/12/04 12:06:44;;;;;;;38.95;19.73;;;;;;;4.16;100.00;99554.69;6116802;23;20030;-76
2021/12/04 12:09:26;;;;;;;48.90;22.45;;;;;;;4.16;100.00;99546.88;6113803;23;20026;-76
2021/12/04 12:11:59;;;;;;;50.83;22.17;;;;;;;4.16;100.00;99550.38;6122330;23;20030;-75
2021/12/04 12:14:39;;;;;;;47.72;22.70;;;;;;;4.15;100.00;99555.56;6118087;23;20028;-76
2021/12/04 12:17:08;;;;;;;48.53;22.60;;;;;;;4.16;100.00;99558.19;6074174;23;20471;-76
2021/12/04 12:19:41;;;;;;;45.72;22.27;;;;;;;4.17;100.00;99549.50;6086072;23;20366;-76
2021/12/04 12:22:34;;;;;;;45.22;23.00;;;;;;;4.16;100.00;99546.88;6088474;23;20026;-77
2021/12/04 12:26:28;;;;;;;46.42;22.50;;;;;;;4.15;100.00;99539.91;6117645;23;20029;-77
2021/12/04 12:31:59;;;;;;;40.10;20.73;;;;;;;4.15;100.00;99517.31;6119753;23;20033;-77
2021/12/04 12:37:14;;;;;;;48.70;23.85;;;;;;;4.15;100.00;99524.28;6120195;23;20026;-76
2021/12/04 12:39:58;;;;;;;42.05;21.50;;;;;;;4.14;100.00;99523.41;6093767;23;20033;-76
2021/12/04 12:42:33;;;;;;;40.30;21.17;;;;;;;4.12;100.00;99517.31;6116410;23;20475;-76
2021/12/04 12:45:20;;;;;;;45.53;22.52;;;;;;;4.12;100.00;99512.09;6120470;23;20026;-77
2021/12/04 12:48:05;;;;;;;39.88;21.17;;;;;;;4.15;100.00;99514.72;6086799;23;20022;-76
2021/12/04 12:50:40;;;;;;;40.95;21.55;;;;;;;4.16;100.00;99510.38;6058340;23;20241;-77
2021/12/04 12:53:27;;;;;;;39.28;21.35;;;;;;;4.18;100.00;99504.31;6087369;23;20029;-77
2021/12/04 12:56:24;;;;;;;43.33;21.80;;;;;;;4.22;100.00;99493.03;6072554;23;20025;-76
2021/12/04 12:59:06;;;;;;;42.28;22.92;;;;;;;4.27;100.00;99493.97;6082509;23;20464;-76
2021/12/04 13:13:33;;;;;;;41.47;23.08;;;;;;;4.44;100.00;99494.06;6075002;23;20053;-76
2021/12/04 13:16:28;;;;;;;43.50;22.90;;;;;;;4.46;100.00;99484.50;6118179;23;20360;-76
2021/12/04 13:19:06;;;;;;;210.30;36.33;;;;;;;4.48;100.00;99481.91;6082162;23;20032;-77
2021/12/04 13:21:38;;;;;;;36.92;21.95;;;;;;;4.46;100.00;99483.63;6112752;23;20037;-77
2021/12/04 13:24:10;;;;;;;38.58;21.63;;;;;;;4.46;100.00;99478.41;6085122;23;20337;-76
2021/12/04 13:26:45;;;;;;;187.40;33.70;;;;;;;4.45;100.00;99481.91;6091092;23;20022;-77
2021/12/04 13:29:19;;;;;;;39.58;22.35;;;;;;;4.45;100.00;99471.47;6116473;23;20025;-76
2021/12/04 13:31:53;;;;;;;40.88;22.02;;;;;;;4.45;100.00;99463.63;6090871;23;20476;-84
2021/12/04 13:34:26;;;;;;;34.67;21.80;;;;;;;4.46;100.00;99463.66;6082478;23;20503;-82
2021/12/04 13:36:56;;;;;;;35.35;21.23;;;;;;;4.46;100.00;99471.47;6036869;23;20021;-82
2021/12/04 13:39:25;;;;;;;37.90;20.27;;;;;;;4.44;100.00;99469.69;6069631;23;20037;-82
2021/12/04 13:41:58;;;;;;;38.15;21.90;;;;;;;4.44;100.00;99465.38;6073626;23;20455;-80
2021/12/04 13:44:29;;;;;;;42.90;20.75;;;;;;;4.47;100.00;99459.28;6065164;23;20021;-81
2021/12/04 13:47:05;;;;;;;34.00;20.95;;;;;;;4.46;100.00;99458.44;6098902;23;20029;-81
2021/12/04 13:50:00;;;;;;;39.25;21.70;;;;;;;4.45;100.00;99448.84;6073661;23;20037;-81
2021/12/04 13:52:32;;;;;;;43.78;23.55;;;;;;;4.44;100.00;99451.44;6094413;23;20360;-81
2021/12/04 13:55:09;;;;;;;33.35;20.38;;;;;;;4.44;100.00;99454.94;6085713;23;20049;-80
2021/12/04 13:57:39;;;;;;;35.60;20.38;;;;;;;4.44;100.00;99447.13;6091402;23;20208;-80
2021/12/04 14:00:10;;;;;;;;;;;;;;;4.41;100.00;99449.69;6074999;23;20573;-80
2021/12/04 14:02:39;;;;;;;37.33;21.65;;;;;;;4.40;100.00;99454.91;6094871;23;19948;-80
2021/12/04 14:05:13;;;;;;;35.63;20.92;;;;;;;4.37;100.00;99452.28;6092355;23;20041;-80
2021/12/04 14:07:50;;;;;;;34.20;21.55;;;;;;;4.38;100.00;99456.63;6066147;23;20026;-80
2021/12/04 14:10:21;;;;;;;35.42;22.27;;;;;;;4.40;100.00;99455.75;6120069;23;20022;-80
2021/12/04 14:12:50;;;;;;;38.35;23.88;;;;;;;4.39;100.00;99458.38;6118239;23;20018;-80
2021/12/04 14:15:20;;;;;;;39.25;23.02;;;;;;;4.36;100.00;99450.53;6066056;23;20015;-81
2021/12/04 14:17:50;;;;;;;;;;;;;;;4.33;100.00;99460.94;6094814;23;20212;-81
2021/12/04 14:20:21;;;;;;;41.78;24.90;;;;;;;4.31;100.00;99460.94;6072778;23;19920;-80
2021/12/04 14:22:52;;;;;;;43.08;23.65;;;;;;;4.27;100.00;99452.22;6069570;23;20022;-80
2021/12/04 14:25:22;;;;;;;41.15;24.40;;;;;;;4.28;100.00;99455.72;6084337;23;20022;-80
2021/12/04 14:27:52;;;;;;;46.88;25.88;;;;;;;4.25;100.00;99451.34;6056879;23;20089;-80
2021/12/04 14:30:27;;;;;;;51.88;27.20;;;;;;;4.25;100.00;99443.53;6071153;23;20025;-80
2021/12/04 14:32:57;;;;;;;54.95;28.15;;;;;;;4.24;100.00;99441.78;6090945;23;20037;-81
2021/12/04 14:35:32;;;;;;;57.13;26.75;;;;;;;4.25;100.00;99433.09;6063790;23;20018;-81
2021/12/04 14:38:04;;;;;;;58.78;26.70;;;;;;;4.24;100.00;99433.94;6057164;23;20110;-81
2021/12/04 14:40:38;;;;;;;55.30;26.40;;;;;;;4.24;100.00;99433.94;6081978;23;20022;-81
2021/12/04 14:43:14;;;;;;;70.05;28.10;;;;;;;4.23;100.00;99434.78;6092811;23;20024;-81